Time;durP1;ratioP1;P1;durP2;ratioP2;P2;SDS_P1;SDS_P2;PMS_P1;PMS_P2;Temp;Humidity;BMP_temperature;BMP_pressure;BME280_temperature;BME280_humidity;BME280_pressure;Samples;Min_cycle;Max_cycle;Signal;HPM_P1;HPM_P2
2021/10/16 00:01:46;;;;;;;1.90;1.52;;;;;;;;;;5051051;28;20033;-77
2021/10/16 00:04:11;;;;;;;6.60;3.28;;;;;;;;;;5050912;28;20456;-77
2021/10/16 00:06:36;;;;;;;2.80;1.02;;;;;;;;;;5050720;28;20072;-78
2021/10/16 00:09:03;;;;;;;3.13;1.77;;;;;;;;;;5050642;28;20067;-76
2021/10/16 00:11:28;;;;;;;1.02;0.90;;;;;;;;;;5032810;28;20037;-76
2021/10/16 00:13:54;;;;;;;1.23;0.70;;;;;;;;;;5050845;28;20037;-77
2021/10/16 00:16:19;;;;;;;1.55;1.45;;;;;;;;;;5050964;28;20029;-77
2021/10/16 00:18:44;;;;;;;2.17;1.98;;;;;;;;;;5050808;28;20470;-76
2021/10/16 00:21:10;;;;;;;3.58;1.90;;;;;;;;;;5050415;28;20029;-77
2021/10/16 00:23:35;;;;;;;3.13;1.73;;;;;;;;;;5050591;28;20506;-77
2021/10/16 00:26:00;;;;;;;1.55;1.55;;;;;;;;;;5054420;28;20110;-77
2021/10/16 00:28:26;;;;;;;1.52;1.52;;;;;;;;;;5054425;28;20033;-77
2021/10/16 00:30:51;;;;;;;1.90;1.77;;;;;;;;;;5036602;28;20029;-77
2021/10/16 00:33:17;;;;;;;0.80;0.80;;;;;;;;;;5054207;28;20584;-76
2021/10/16 00:35:43;;;;;;;1.38;1.38;;;;;;;;;;5054602;28;20075;-77
2021/10/16 00:38:09;;;;;;;1.55;1.55;;;;;;;;;;5054349;28;20040;-77
2021/10/16 00:40:34;;;;;;;1.88;1.77;;;;;;;;;;5054116;28;20040;-76
2021/10/16 00:42:59;;;;;;;1.48;1.45;;;;;;;;;;5054176;28;20033;-77
2021/10/16 00:45:25;;;;;;;1.70;1.60;;;;;;;;;;5054230;28;20029;-79
2021/10/16 00:47:52;;;;;;;2.00;1.90;;;;;;;;;;5054211;28;20033;-77
2021/10/16 00:50:21;;;;;;;2.58;1.60;;;;;;;;;;5053902;28;20123;-76
2021/10/16 00:52:48;;;;;;;1.00;1.00;;;;;;;;;;5036355;28;20067;-76
2021/10/16 00:55:19;;;;;;;3.75;1.52;;;;;;;;;;5036400;28;20033;-76
2021/10/16 00:57:45;;;;;;;2.20;1.90;;;;;;;;;;5053837;28;20039;-77
2021/10/16 01:00:12;;;;;;;2.08;1.77;;;;;;;;;;5053866;28;20111;-77
2021/10/16 01:02:37;;;;;;;1.30;1.30;;;;;;;;;;5053980;28;20032;-77
2021/10/16 01:05:05;;;;;;;2.40;1.90;;;;;;;;;;5053820;28;20410;-77
2021/10/16 01:07:31;;;;;;;2.05;1.95;;;;;;;;;;5053601;28;20172;-77
2021/10/16 01:09:57;;;;;;;1.23;1.23;;;;;;;;;;5053559;28;20533;-77
2021/10/16 01:12:24;;;;;;;2.30;2.08;;;;;;;;;;5053879;28;20155;-77
2021/10/16 01:14:56;;;;;;;2.20;2.10;;;;;;;;;;5053618;28;20040;-76
2021/10/16 01:17:22;;;;;;;1.85;1.75;;;;;;;;;;5053541;28;20091;-76
2021/10/16 01:19:55;;;;;;;3.30;1.20;;;;;;;;;;5053131;28;20449;-76
2021/10/16 01:22:22;;;;;;;2.05;1.95;;;;;;;;;;5035777;28;20033;-76
2021/10/16 01:24:49;;;;;;;1.77;1.77;;;;;;;;;;5053203;28;20033;-77
2021/10/16 01:27:15;;;;;;;1.23;1.13;;;;;;;;;;5053261;28;20064;-75
2021/10/16 01:29:41;;;;;;;2.22;2.03;;;;;;;;;;5053186;28;20033;-76
2021/10/16 01:32:07;;;;;;;3.17;2.53;;;;;;;;;;5053337;28;20050;-77
2021/10/16 01:34:33;;;;;;;1.60;1.27;;;;;;;;;;5035112;28;20119;-76
2021/10/16 01:36:58;;;;;;;5.82;2.30;;;;;;;;;;5051833;28;20513;-76
2021/10/16 01:39:24;;;;;;;2.05;1.95;;;;;;;;;;5053421;28;20505;-76
2021/10/16 01:41:50;;;;;;;2.28;2.17;;;;;;;;;;5053132;28;20037;-77
2021/10/16 01:44:16;;;;;;;2.25;1.90;;;;;;;;;;5035034;28;20546;-76
2021/10/16 01:46:43;;;;;;;2.80;1.20;;;;;;;;;;5035185;28;20124;-76
2021/10/16 01:49:10;;;;;;;1.52;1.27;;;;;;;;;;5052817;28;20119;-76
2021/10/16 01:51:35;;;;;;;4.55;2.17;;;;;;;;;;5034836;28;20029;-76
2021/10/16 01:54:01;;;;;;;1.77;1.67;;;;;;;;;;5052693;28;20124;-76
2021/10/16 01:56:26;;;;;;;3.47;1.88;;;;;;;;;;5053183;28;20086;-77
2021/10/16 01:58:52;;;;;;;3.53;2.70;;;;;;;;;;5053292;28;20526;-75
2021/10/16 02:01:17;;;;;;;2.38;1.75;;;;;;;;;;5034937;28;20083;-75
2021/10/16 02:03:42;;;;;;;2.60;2.40;;;;;;;;;;5052849;28;20041;-76
2021/10/16 02:06:08;;;;;;;1.52;1.42;;;;;;;;;;5052753;28;20025;-76
2021/10/16 02:08:35;;;;;;;3.10;2.78;;;;;;;;;;5034742;28;20043;-77
2021/10/16 02:11:00;;;;;;;2.47;2.38;;;;;;;;;;5053194;28;20112;-77
2021/10/16 02:13:25;;;;;;;1.95;1.85;;;;;;;;;;5064178;28;20053;-77
2021/10/16 02:15:51;;;;;;;2.85;1.40;;;;;;;;;;5075820;28;20041;-77
2021/10/16 02:18:16;;;;;;;2.75;2.63;;;;;;;;;;5073630;28;20048;-76
2021/10/16 02:20:41;;;;;;;3.72;2.10;;;;;;;;;;5065533;28;20041;-78
2021/10/16 02:23:07;;;;;;;5.68;1.42;;;;;;;;;;5053913;28;20071;-78
2021/10/16 02:25:32;;;;;;;1.95;1.20;;;;;;;;;;5052500;28;20482;-77
2021/10/16 02:27:57;;;;;;;2.42;1.67;;;;;;;;;;5052566;28;20037;-78
2021/10/16 02:30:23;;;;;;;3.65;2.10;;;;;;;;;;5052548;28;20029;-78
2021/10/16 02:32:48;;;;;;;2.55;2.35;;;;;;;;;;5052099;28;20493;-77
2021/10/16 02:35:14;;;;;;;2.22;2.08;;;;;;;;;;5051906;28;20095;-78
2021/10/16 02:37:39;;;;;;;1.73;1.63;;;;;;;;;;5051968;28;20494;-78
2021/10/16 02:40:05;;;;;;;2.58;2.28;;;;;;;;;;5034166;28;20037;-78
2021/10/16 02:42:30;;;;;;;2.67;2.50;;;;;;;;;;5051777;28;20028;-77
2021/10/16 02:44:56;;;;;;;1.40;1.38;;;;;;;;;;5051959;28;20044;-77
2021/10/16 02:47:26;;;;;;;3.60;2.35;;;;;;;;;;5033802;28;20025;-77
2021/10/16 02:49:51;;;;;;;2.05;1.90;;;;;;;;;;5033903;28;20033;-77
2021/10/16 02:52:16;;;;;;;2.45;2.10;;;;;;;;;;5051944;28;20063;-78
2021/10/16 02:54:42;;;;;;;2.38;1.20;;;;;;;;;;5051613;28;20434;-77
2021/10/16 02:57:07;;;;;;;2.20;2.10;;;;;;;;;;5051747;28;20051;-77
2021/10/16 02:59:32;;;;;;;2.50;1.95;;;;;;;;;;5051417;28;20075;-77
2021/10/16 03:01:58;;;;;;;2.72;2.45;;;;;;;;;;5051660;28;20486;-76
2021/10/16 03:04:23;;;;;;;5.00;2.40;;;;;;;;;;5051705;28;20083;-76
2021/10/16 03:06:48;;;;;;;3.28;3.08;;;;;;;;;;5033317;28;20041;-77
2021/10/16 03:09:17;;;;;;;1.67;1.58;;;;;;;;;;5051320;28;20041;-77
2021/10/16 03:11:43;;;;;;;2.63;2.42;;;;;;;;;;5033040;28;20079;-77
2021/10/16 03:14:08;;;;;;;4.05;3.75;;;;;;;;;;5051214;28;20487;-77
2021/10/16 03:16:34;;;;;;;1.85;1.48;;;;;;;;;;5051292;28;20032;-76
2021/10/16 03:18:59;;;;;;;3.42;3.22;;;;;;;;;;5051259;28;20121;-76
2021/10/16 03:21:24;;;;;;;3.08;2.35;;;;;;;;;;5051155;28;20033;-76
2021/10/16 03:23:50;;;;;;;4.00;1.55;;;;;;;;;;5033224;28;20040;-76
2021/10/16 03:26:15;;;;;;;3.35;2.00;;;;;;;;;;5051109;28;20437;-76
2021/10/16 03:28:41;;;;;;;2.42;2.22;;;;;;;;;;5051000;28;20120;-76
2021/10/16 03:31:06;;;;;;;3.92;3.55;;;;;;;;;;5050981;28;20029;-76
2021/10/16 03:33:32;;;;;;;2.88;2.33;;;;;;;;;;5051000;28;20059;-76
2021/10/16 03:35:57;;;;;;;4.22;3.97;;;;;;;;;;5050443;28;20430;-76
2021/10/16 03:38:23;;;;;;;2.08;1.88;;;;;;;;;;5049806;28;20036;-78
2021/10/16 03:40:48;;;;;;;2.53;2.42;;;;;;;;;;5049948;28;20033;-77
2021/10/16 03:43:13;;;;;;;1.70;1.50;;;;;;;;;;5050113;28;20029;-76
2021/10/16 03:45:39;;;;;;;1.75;1.58;;;;;;;;;;5050286;28;20044;-77
2021/10/16 03:48:05;;;;;;;6.85;3.45;;;;;;;;;;5049888;28;20033;-77
2021/10/16 03:50:32;;;;;;;2.33;2.15;;;;;;;;;;5049593;28;20182;-76
2021/10/16 03:52:58;;;;;;;3.63;3.15;;;;;;;;;;5031889;28;20124;-77
2021/10/16 03:55:23;;;;;;;3.83;3.15;;;;;;;;;;5032467;28;20048;-76
2021/10/16 03:57:50;;;;;;;5.18;2.70;;;;;;;;;;5049864;28;20041;-76
2021/10/16 04:00:17;;;;;;;3.42;3.15;;;;;;;;;;5051771;28;20033;-77
2021/10/16 04:02:46;;;;;;;3.35;2.70;;;;;;;;;;5035688;28;20040;-77
2021/10/16 04:05:13;;;;;;;2.30;2.13;;;;;;;;;;5035559;28;20029;-79
2021/10/16 04:07:38;;;;;;;3.53;3.20;;;;;;;;;;5035480;28;20033;-78
2021/10/16 04:10:04;;;;;;;4.68;2.67;;;;;;;;;;5053209;28;20040;-79
2021/10/16 04:12:29;;;;;;;3.47;3.15;;;;;;;;;;5053165;28;20444;-78
2021/10/16 04:14:54;;;;;;;3.83;3.50;;;;;;;;;;5053419;28;20037;-78
2021/10/16 04:17:20;;;;;;;3.15;2.90;;;;;;;;;;5053435;28;20068;-77
2021/10/16 04:19:45;;;;;;;5.40;3.42;;;;;;;;;;5053039;28;20063;-78
2021/10/16 04:22:11;;;;;;;3.13;2.80;;;;;;;;;;5053639;28;20449;-78
2021/10/16 04:24:36;;;;;;;4.13;3.72;;;;;;;;;;5053420;28;20090;-76
2021/10/16 04:27:01;;;;;;;3.45;2.92;;;;;;;;;;5053178;28;20033;-79
2021/10/16 04:29:27;;;;;;;4.35;3.22;;;;;;;;;;5053377;28;20052;-77
2021/10/16 04:31:52;;;;;;;4.90;2.47;;;;;;;;;;5053114;28;20036;-76
2021/10/16 04:34:18;;;;;;;4.50;3.83;;;;;;;;;;5053334;28;20409;-73
2021/10/16 04:36:43;;;;;;;3.92;2.65;;;;;;;;;;5012854;28;1191302;-74
2021/10/16 04:39:08;;;;;;;4.95;3.63;;;;;;;;;;5054269;28;20040;-74
2021/10/16 04:41:35;;;;;;;4.10;2.80;;;;;;;;;;5036373;28;20052;-75
2021/10/16 04:44:01;;;;;;;3.45;3.15;;;;;;;;;;5054282;28;20041;-74
2021/10/16 04:46:27;;;;;;;5.00;4.10;;;;;;;;;;5054284;28;20040;-77
2021/10/16 04:48:53;;;;;;;5.68;3.83;;;;;;;;;;5054321;28;20124;-76
2021/10/16 04:51:18;;;;;;;5.05;3.22;;;;;;;;;;5054054;28;20554;-74
2021/10/16 04:53:44;;;;;;;4.18;3.75;;;;;;;;;;5054378;28;20524;-75
2021/10/16 04:56:09;;;;;;;7.15;5.88;;;;;;;;;;5036103;28;20402;-75
2021/10/16 04:58:34;;;;;;;4.25;3.75;;;;;;;;;;5053976;28;20029;-74
2021/10/16 05:01:00;;;;;;;3.60;3.20;;;;;;;;;;5053272;28;20040;-74
2021/10/16 05:03:25;;;;;;;7.03;3.20;;;;;;;;;;5053895;28;20037;-75
2021/10/16 05:05:53;;;;;;;4.68;4.18;;;;;;;;;;5053946;28;20119;-75
2021/10/16 05:08:19;;;;;;;5.53;2.85;;;;;;;;;;5035637;28;20490;-75
2021/10/16 05:10:44;;;;;;;3.30;3.00;;;;;;;;;;5053464;28;20132;-75
2021/10/16 05:13:10;;;;;;;4.70;2.97;;;;;;;;;;5053706;28;20120;-76
2021/10/16 05:15:35;;;;;;;3.38;3.03;;;;;;;;;;5053342;28;20490;-76
2021/10/16 05:18:00;;;;;;;2.70;2.50;;;;;;;;;;5053567;28;20049;-78
2021/10/16 05:20:26;;;;;;;3.65;3.35;;;;;;;;;;5053485;28;20476;-75
2021/10/16 05:22:52;;;;;;;2.08;1.98;;;;;;;;;;5035835;28;20067;-75
2021/10/16 05:25:17;;;;;;;4.18;3.65;;;;;;;;;;5035567;28;20458;-76
2021/10/16 05:27:43;;;;;;;6.05;5.32;;;;;;;;;;5053295;28;20036;-75
2021/10/16 05:30:09;;;;;;;3.50;3.20;;;;;;;;;;5053173;28;20406;-74
2021/10/16 05:32:35;;;;;;;4.97;2.95;;;;;;;;;;5052748;28;20494;-75
2021/10/16 05:35:01;;;;;;;1.95;1.83;;;;;;;;;;5053074;28;20067;-76
2021/10/16 05:37:26;;;;;;;3.28;2.97;;;;;;;;;;5053363;28;20056;-76
2021/10/16 05:39:52;;;;;;;3.33;3.13;;;;;;;;;;5053566;28;20077;-76
2021/10/16 05:42:17;;;;;;;3.88;2.03;;;;;;;;;;5053185;28;20041;-76
2021/10/16 05:44:44;;;;;;;2.97;2.78;;;;;;;;;;5053169;28;20029;-76
2021/10/16 05:47:09;;;;;;;4.97;3.03;;;;;;;;;;5052681;28;20036;-74
2021/10/16 05:49:34;;;;;;;1.77;1.65;;;;;;;;;;5052715;28;20037;-76
2021/10/16 05:52:00;;;;;;;2.78;2.58;;;;;;;;;;5052725;28;20553;-75
2021/10/16 05:54:26;;;;;;;2.83;2.58;;;;;;;;;;5052969;28;20025;-76
2021/10/16 05:56:51;;;;;;;3.40;2.55;;;;;;;;;;5053143;28;20048;-77
2021/10/16 05:59:17;;;;;;;2.13;1.90;;;;;;;;;;5052996;28;20649;-78
2021/10/16 06:01:42;;;;;;;2.45;2.17;;;;;;;;;;5052140;28;20136;-76
2021/10/16 06:04:09;;;;;;;4.22;2.28;;;;;;;;;;5052692;28;20032;-76
2021/10/16 06:06:35;;;;;;;2.00;1.90;;;;;;;;;;5052661;28;20039;-76
2021/10/16 06:09:00;;;;;;;2.72;1.48;;;;;;;;;;5052516;28;20116;-75
2021/10/16 06:11:26;;;;;;;1.90;1.65;;;;;;;;;;5048202;28;20033;-76
2021/10/16 06:13:52;;;;;;;2.88;2.67;;;;;;;;;;5050012;28;20044;-75
2021/10/16 06:16:17;;;;;;;2.45;2.35;;;;;;;;;;5051920;28;20079;-77
2021/10/16 06:18:44;;;;;;;2.33;2.22;;;;;;;;;;5051543;28;20045;-76
2021/10/16 06:21:10;;;;;;;2.75;2.55;;;;;;;;;;5051980;28;20029;-77
2021/10/16 06:23:36;;;;;;;2.58;2.40;;;;;;;;;;5051092;28;20119;-77
2021/10/16 06:26:02;;;;;;;4.85;4.55;;;;;;;;;;5051687;28;20460;-78
2021/10/16 06:28:28;;;;;;;2.85;2.67;;;;;;;;;;5051821;28;20525;-78
2021/10/16 06:30:53;;;;;;;3.10;2.55;;;;;;;;;;5033552;28;20056;-77
2021/10/16 06:33:19;;;;;;;3.03;2.83;;;;;;;;;;5031533;28;20116;-76
2021/10/16 06:35:44;;;;;;;2.70;1.70;;;;;;;;;;5031813;28;20120;-80
2021/10/16 06:38:10;;;;;;;2.90;2.70;;;;;;;;;;5031783;28;20114;-77
2021/10/16 06:40:35;;;;;;;1.92;1.83;;;;;;;;;;5031078;28;20060;-76
2021/10/16 06:43:01;;;;;;;3.75;3.45;;;;;;;;;;5032014;28;20045;-78
2021/10/16 06:45:27;;;;;;;3.72;3.53;;;;;;;;;;5031898;28;20037;-76
2021/10/16 06:47:53;;;;;;;1.98;1.88;;;;;;;;;;5031122;28;20037;-78
2021/10/16 06:50:18;;;;;;;2.88;2.22;;;;;;;;;;5031101;28;20490;-76
2021/10/16 06:52:43;;;;;;;2.70;2.03;;;;;;;;;;5031714;28;20064;-77
2021/10/16 06:55:09;;;;;;;2.90;2.70;;;;;;;;;;5030800;28;20029;-76
2021/10/16 06:57:34;;;;;;;2.42;2.33;;;;;;;;;;5031162;28;20482;-77
2021/10/16 07:00:00;;;;;;;3.00;2.80;;;;;;;;;;5031125;28;20033;-78
2021/10/16 07:02:28;;;;;;;2.58;2.47;;;;;;;;;;5031043;28;20130;-77
2021/10/16 07:04:54;;;;;;;2.58;2.38;;;;;;;;;;5031789;28;20112;-77
2021/10/16 07:07:20;;;;;;;3.88;2.90;;;;;;;;;;5051354;28;20037;-77
2021/10/16 07:09:45;;;;;;;3.03;1.90;;;;;;;;;;5050986;28;20170;-78
2021/10/16 07:12:11;;;;;;;1.42;1.35;;;;;;;;;;5050910;28;20517;-78
2021/10/16 07:14:36;;;;;;;2.80;2.60;;;;;;;;;;5033345;28;20064;-79
2021/10/16 07:17:01;;;;;;;2.20;2.10;;;;;;;;;;5032192;28;20119;-77
2021/10/16 07:19:27;;;;;;;2.22;2.10;;;;;;;;;;5051234;28;20037;-78
2021/10/16 07:21:52;;;;;;;2.67;2.47;;;;;;;;;;5050292;28;20037;-78
2021/10/16 07:24:18;;;;;;;1.58;1.48;;;;;;;;;;5050821;28;20032;-77
2021/10/16 07:26:44;;;;;;;2.67;2.53;;;;;;;;;;5052395;28;20032;-77
2021/10/16 07:29:10;;;;;;;2.30;2.20;;;;;;;;;;5060213;28;20032;-78
2021/10/16 07:31:35;;;;;;;2.03;1.83;;;;;;;;;;5066738;28;20039;-76
2021/10/16 07:34:01;;;;;;;2.30;2.20;;;;;;;;;;5066694;28;20056;-77
2021/10/16 07:36:38;;;;;;;2.65;2.45;;;;;;;;;;5060181;28;20520;-78
2021/10/16 07:39:05;;;;;;;2.38;2.28;;;;;;;;;;5034441;28;20044;-78
2021/10/16 07:41:31;;;;;;;3.40;2.70;;;;;;;;;;5051976;28;20037;-77
2021/10/16 07:43:56;;;;;;;3.28;2.08;;;;;;;;;;5033974;28;20438;-77
2021/10/16 07:46:22;;;;;;;1.83;1.73;;;;;;;;;;5051102;28;20036;-76
2021/10/16 07:48:48;;;;;;;1.50;1.40;;;;;;;;;;5050399;28;20047;-77
2021/10/16 07:51:14;;;;;;;2.33;2.13;;;;;;;;;;5032729;28;20132;-76
2021/10/16 07:53:39;;;;;;;2.70;2.50;;;;;;;;;;5050738;28;20111;-76
2021/10/16 07:56:04;;;;;;;2.70;2.47;;;;;;;;;;5049723;28;20067;-76
2021/10/16 07:58:30;;;;;;;2.47;1.40;;;;;;;;;;5050351;28;20071;-77
2021/10/16 08:00:55;;;;;;;2.20;2.03;;;;;;;;;;5050132;28;20036;-78
2021/10/16 08:03:20;;;;;;;1.50;1.40;;;;;;;;;;5050171;28;20035;-76
2021/10/16 08:05:46;;;;;;;2.55;2.35;;;;;;;;;;5048126;28;20033;-76
2021/10/16 08:08:14;;;;;;;1.70;1.42;;;;;;;;;;5045664;28;20033;-76
2021/10/16 08:10:40;;;;;;;1.73;1.73;;;;;;;;;;5031277;28;20029;-76
2021/10/16 08:13:05;;;;;;;2.30;2.10;;;;;;;;;;5039568;28;20032;-76
2021/10/16 08:15:31;;;;;;;1.17;1.17;;;;;;;;;;5050189;28;20087;-75
2021/10/16 08:17:56;;;;;;;1.25;1.15;;;;;;;;;;5050468;28;20094;-78
2021/10/16 08:20:22;;;;;;;2.08;1.98;;;;;;;;;;5058985;23;20044;-77
2021/10/16 08:22:47;;;;;;;1.65;1.63;;;;;;;;;;5048647;28;20051;-77
2021/10/16 08:25:14;;;;;;;2.42;1.67;;;;;;;;;;5052434;28;20035;-77
2021/10/16 08:27:40;;;;;;;2.08;2.00;;;;;;;;;;5070673;28;20502;-76
2021/10/16 08:30:09;;;;;;;2.20;2.10;;;;;;;;;;5071199;28;20064;-74
2021/10/16 08:32:35;;;;;;;3.33;1.33;;;;;;;;;;5071733;28;20504;-76
2021/10/16 08:35:01;;;;;;;1.48;1.30;;;;;;;;;;5091243;28;20115;-75
2021/10/16 08:37:26;;;;;;;2.08;1.98;;;;;;;;;;5091156;28;20558;-75
2021/10/16 08:39:52;;;;;;;2.85;1.98;;;;;;;;;;5091422;28;20028;-77
2021/10/16 08:42:17;;;;;;;2.08;1.98;;;;;;;;;;5090833;28;20119;-76
2021/10/16 08:44:43;;;;;;;2.53;2.33;;;;;;;;;;5091174;28;20040;-74
2021/10/16 08:47:09;;;;;;;2.35;1.58;;;;;;;;;;5094601;28;20054;-74
2021/10/16 08:49:37;;;;;;;2.70;2.50;;;;;;;;;;5094895;28;20036;-74
2021/10/16 08:52:03;;;;;;;2.60;2.42;;;;;;;;;;5094709;28;20493;-75
2021/10/16 08:54:28;;;;;;;1.90;1.80;;;;;;;;;;5094903;28;20024;-76
2021/10/16 08:56:54;;;;;;;1.50;1.42;;;;;;;;;;5094447;28;20028;-75
2021/10/16 08:59:19;;;;;;;1.80;1.70;;;;;;;;;;5094778;28;20515;-76
2021/10/16 09:02:03;;;;;;;1.88;1.67;;;;;;;;;;5094098;28;20032;-76
2021/10/16 09:04:29;;;;;;;1.15;1.15;;;;;;;;;;5094613;28;20111;-74
2021/10/16 09:06:55;;;;;;;2.15;2.00;;;;;;;;;;5094451;28;20068;-77
2021/10/16 09:09:29;;;;;;;0.90;0.90;;;;;;;;;;5094799;28;20068;-75
2021/10/16 09:11:56;;;;;;;5.18;1.48;;;;;;;;;;5094438;28;20036;-76
2021/10/16 09:14:25;;;;;;;0.90;0.90;;;;;;;;;;5094758;28;20036;-79
2021/10/16 09:16:55;;;;;;;1.23;1.15;;;;;;;;;;5094076;28;20112;-77
2021/10/16 09:19:27;;;;;;;1.75;1.65;;;;;;;;;;5094441;28;20063;-76
2021/10/16 09:22:06;;;;;;;1.20;1.10;;;;;;;;;;5076105;28;20110;-76
2021/10/16 09:24:42;;;;;;;1.20;1.10;;;;;;;;;;5094408;28;20046;-75
2021/10/16 09:27:27;;;;;;;1.23;1.08;;;;;;;;;;5094051;28;20504;-76
2021/10/16 09:30:01;;;;;;;2.33;2.22;;;;;;;;;;5094034;28;20047;-76
2021/10/16 09:32:27;;;;;;;0.85;0.68;;;;;;;;;;5093922;28;20027;-76
2021/10/16 09:35:06;;;;;;;0.80;0.77;;;;;;;;;;5075875;28;20078;-76
2021/10/16 09:37:32;;;;;;;1.85;1.73;;;;;;;;;;5093879;28;20039;-76
2021/10/16 09:39:59;;;;;;;1.88;1.77;;;;;;;;;;5093788;28;20120;-76
2021/10/16 09:42:30;;;;;;;2.78;2.58;;;;;;;;;;5075357;28;20400;-76
2021/10/16 09:44:58;;;;;;;3.65;3.45;;;;;;;;;;5093783;28;20385;-77
2021/10/16 09:47:23;;;;;;;1.80;1.70;;;;;;;;;;5093630;28;20032;-76
2021/10/16 09:50:06;;;;;;;2.00;1.77;;;;;;;;;;5093817;28;20413;-76
2021/10/16 09:52:39;;;;;;;1.88;1.80;;;;;;;;;;5093568;28;20481;-77
2021/10/16 09:55:07;;;;;;;1.63;1.00;;;;;;;;;;5093343;28;20040;-74
2021/10/16 09:57:32;;;;;;;1.80;1.80;;;;;;;;;;5092379;28;20500;-75
2021/10/16 10:00:04;;;;;;;3.65;1.67;;;;;;;;;;5075523;28;20032;-75
2021/10/16 10:02:31;;;;;;;1.35;1.25;;;;;;;;;;5093620;28;20048;-76
2021/10/16 10:04:57;;;;;;;1.33;1.33;;;;;;;;;;5093741;28;20032;-78
2021/10/16 10:07:25;;;;;;;2.08;1.98;;;;;;;;;;5093243;28;20115;-75
2021/10/16 10:09:51;;;;;;;1.92;1.85;;;;;;;;;;5093548;28;20043;-74
2021/10/16 10:12:18;;;;;;;2.50;2.40;;;;;;;;;;5093359;28;20124;-75
2021/10/16 10:14:47;;;;;;;1.48;1.48;;;;;;;;;;5093789;28;20043;-75
2021/10/16 10:17:15;;;;;;;1.63;1.45;;;;;;;;;;5093293;28;20032;-75
2021/10/16 10:19:44;;;;;;;1.80;1.70;;;;;;;;;;5075133;28;20089;-74
2021/10/16 10:22:15;;;;;;;1.65;1.65;;;;;;;;;;5092821;28;20226;-75
2021/10/16 10:24:48;;;;;;;1.90;1.80;;;;;;;;;;5092601;28;20032;-75
2021/10/16 10:27:16;;;;;;;1.15;1.05;;;;;;;;;;5092757;28;20036;-75
2021/10/16 10:29:46;;;;;;;1.50;1.40;;;;;;;;;;5092784;28;20028;-75
2021/10/16 10:32:30;;;;;;;1.45;1.35;;;;;;;;;;5092853;28;20439;-74
2021/10/16 10:35:13;;;;;;;1.95;1.77;;;;;;;;;;5092655;28;20035;-76
2021/10/16 10:37:42;;;;;;;4.18;3.90;;;;;;;;;;5092775;28;20374;-77
2021/10/16 10:40:21;;;;;;;1.17;1.17;;;;;;;;;;5092216;28;20028;-75
2021/10/16 10:42:56;;;;;;;2.58;2.47;;;;;;;;;;5074632;28;20032;-74
2021/10/16 10:45:32;;;;;;;1.33;1.23;;;;;;;;;;5092417;28;20038;-76
2021/10/16 10:48:17;;;;;;;2.40;1.17;;;;;;;;;;5092573;28;20131;-75
2021/10/16 10:50:53;;;;;;;1.42;0.93;;;;;;;;;;5091733;28;20040;-75
2021/10/16 10:53:24;;;;;;;1.90;1.80;;;;;;;;;;5092497;28;20036;-75
2021/10/16 10:55:55;;;;;;;1.20;1.02;;;;;;;;;;5092386;28;20032;-76
2021/10/16 10:58:22;;;;;;;1.77;1.67;;;;;;;;;;5092502;28;20039;-74
2021/10/16 11:00:49;;;;;;;1.38;1.27;;;;;;;;;;5092412;28;20089;-76
2021/10/16 11:03:30;;;;;;;1.90;1.40;;;;;;;;;;5073876;28;20035;-75
2021/10/16 11:06:14;;;;;;;2.38;1.13;;;;;;;;;;5091976;28;20031;-78
2021/10/16 11:08:39;;;;;;;1.05;0.95;;;;;;;;;;5073228;28;20101;-76
2021/10/16 11:11:04;;;;;;;1.13;1.13;;;;;;;;;;5073907;28;20028;-76
2021/10/16 11:13:35;;;;;;;2.75;0.98;;;;;;;;;;5091827;28;20123;-74
2021/10/16 11:16:05;;;;;;;1.00;1.00;;;;;;;;;;5092152;28;20041;-77
2021/10/16 11:18:31;;;;;;;2.40;2.20;;;;;;;;;;5091770;28;20040;-74
2021/10/16 11:21:06;;;;;;;1.85;1.50;;;;;;;;;;5091709;28;20058;-75
2021/10/16 11:23:35;;;;;;;3.03;2.42;;;;;;;;;;5092153;28;20035;-74
2021/10/16 11:26:03;;;;;;;1.70;1.60;;;;;;;;;;5073825;28;20118;-75
2021/10/16 11:28:31;;;;;;;2.50;2.22;;;;;;;;;;5092139;28;20036;-74
2021/10/16 11:30:57;;;;;;;2.28;2.17;;;;;;;;;;5091829;28;20196;-75
2021/10/16 11:33:25;;;;;;;3.22;1.23;;;;;;;;;;5092222;28;20491;-74
2021/10/16 11:35:55;;;;;;;1.15;1.15;;;;;;;;;;5092562;28;20036;-74
2021/10/16 11:38:23;;;;;;;1.30;1.20;;;;;;;;;;5091899;28;20040;-75
2021/10/16 11:40:49;;;;;;;2.53;2.30;;;;;;;;;;5091662;28;20032;-75
2021/10/16 11:43:17;;;;;;;3.25;1.92;;;;;;;;;;5091880;28;20031;-76
2021/10/16 11:45:46;;;;;;;9.70;1.58;;;;;;;;;;5091252;28;20040;-77
2021/10/16 11:48:13;;;;;;;1.42;1.33;;;;;;;;;;5091623;28;20512;-75
2021/10/16 11:50:48;;;;;;;2.03;1.90;;;;;;;;;;5073399;28;20367;-76
2021/10/16 11:53:14;;;;;;;2.25;0.88;;;;;;;;;;5091747;28;20036;-75
2021/10/16 11:55:50;;;;;;;1.15;1.05;;;;;;;;;;5091604;28;20040;-77
2021/10/16 11:58:18;;;;;;;4.20;1.83;;;;;;;;;;5091163;28;20027;-75
2021/10/16 12:00:47;;;;;;;1.77;1.23;;;;;;;;;;5073204;28;20425;-76
2021/10/16 12:03:15;;;;;;;1.20;1.10;;;;;;;;;;5091267;28;20032;-77
2021/10/16 12:05:43;;;;;;;3.38;1.20;;;;;;;;;;5073346;28;20040;-77
2021/10/16 12:08:19;;;;;;;1.88;0.93;;;;;;;;;;5091134;28;20036;-77
2021/10/16 12:10:53;;;;;;;1.27;1.27;;;;;;;;;;5091434;28;20469;-77
2021/10/16 12:13:32;;;;;;;0.85;0.73;;;;;;;;;;5091547;28;20442;-78
2021/10/16 12:15:59;;;;;;;1.13;1.13;;;;;;;;;;5091811;28;20043;-76
2021/10/16 12:18:28;;;;;;;1.75;0.90;;;;;;;;;;5091398;28;20054;-70
2021/10/16 12:21:02;;;;;;;2.58;1.00;;;;;;;;;;5093073;28;20064;-71
2021/10/16 12:23:44;;;;;;;1.17;0.90;;;;;;;;;;5095670;28;20153;-72
2021/10/16 12:26:37;;;;;;;1.60;1.50;;;;;;;;;;5095253;28;20097;-72
2021/10/16 12:29:07;;;;;;;2.05;1.80;;;;;;;;;;5090794;28;20036;-72
2021/10/16 12:31:48;;;;;;;1.50;1.17;;;;;;;;;;5095376;28;20043;-71
2021/10/16 12:34:24;;;;;;;1.17;1.13;;;;;;;;;;5095352;28;20043;-70
2021/10/16 12:36:53;;;;;;;0.82;0.82;;;;;;;;;;5095440;28;20223;-72
2021/10/16 12:39:29;;;;;;;1.30;0.90;;;;;;;;;;5094785;28;20032;-72
2021/10/16 12:41:56;;;;;;;2.30;2.05;;;;;;;;;;5095018;28;20495;-72
2021/10/16 12:44:29;;;;;;;2.25;2.05;;;;;;;;;;5095067;28;20126;-71
2021/10/16 12:47:17;;;;;;;2.63;1.02;;;;;;;;;;5095476;28;20036;-73
2021/10/16 12:49:56;;;;;;;2.10;1.20;;;;;;;;;;5076714;28;20081;-70
2021/10/16 12:52:44;;;;;;;0.65;0.57;;;;;;;;;;5094807;28;20032;-70
2021/10/16 12:55:13;;;;;;;3.05;1.15;;;;;;;;;;5095101;28;20202;-71
2021/10/16 12:57:57;;;;;;;1.10;0.88;;;;;;;;;;5094718;28;20067;-71
2021/10/16 13:00:23;;;;;;;0.82;0.82;;;;;;;;;;5094778;28;20097;-71
2021/10/16 13:02:48;;;;;;;0.68;0.68;;;;;;;;;;5094353;28;20036;-73
2021/10/16 13:05:18;;;;;;;0.70;0.70;;;;;;;;;;5094504;28;20486;-72
2021/10/16 13:07:44;;;;;;;1.50;1.10;;;;;;;;;;5094339;28;20039;-72
2021/10/16 13:10:10;;;;;;;1.80;1.20;;;;;;;;;;5094285;28;20040;-71
2021/10/16 13:12:37;;;;;;;1.85;1.00;;;;;;;;;;5094664;28;20527;-74
2021/10/16 13:15:04;;;;;;;1.15;1.00;;;;;;;;;;5076067;28;20027;-73
2021/10/16 13:17:29;;;;;;;2.15;2.05;;;;;;;;;;5094369;28;20040;-71
2021/10/16 13:19:55;;;;;;;2.17;1.55;;;;;;;;;;5094525;28;20170;-74
2021/10/16 13:22:20;;;;;;;1.23;1.17;;;;;;;;;;5093960;28;20040;-72
2021/10/16 13:24:46;;;;;;;1.90;1.80;;;;;;;;;;5094067;28;20130;-70
2021/10/16 13:27:11;;;;;;;4.13;1.30;;;;;;;;;;5094337;28;20178;-72
2021/10/16 13:29:37;;;;;;;1.25;1.15;;;;;;;;;;5094329;28;20043;-72
2021/10/16 13:32:02;;;;;;;2.38;1.83;;;;;;;;;;5094013;28;20036;-72
2021/10/16 13:34:28;;;;;;;2.53;1.15;;;;;;;;;;5093985;28;20031;-72
2021/10/16 13:36:53;;;;;;;3.63;3.33;;;;;;;;;;5094158;28;20382;-71
2021/10/16 13:39:19;;;;;;;2.15;1.98;;;;;;;;;;5093943;28;20047;-70
2021/10/16 13:41:44;;;;;;;2.88;1.25;;;;;;;;;;5093694;28;20040;-70
2021/10/16 13:44:10;;;;;;;1.92;1.83;;;;;;;;;;5093961;28;20093;-72
2021/10/16 13:46:35;;;;;;;2.10;2.00;;;;;;;;;;5094008;28;20415;-73
2021/10/16 13:49:01;;;;;;;2.70;2.45;;;;;;;;;;5093750;28;20063;-71
2021/10/16 13:51:26;;;;;;;2.95;1.70;;;;;;;;;;5094215;28;20036;-70
2021/10/16 13:53:52;;;;;;;2.35;2.20;;;;;;;;;;5094147;28;20038;-73
2021/10/16 13:56:17;;;;;;;2.00;1.90;;;;;;;;;;5093638;28;20438;-71
2021/10/16 13:58:42;;;;;;;2.05;1.65;;;;;;;;;;5093623;28;20127;-69
2021/10/16 14:01:08;;;;;;;2.67;1.98;;;;;;;;;;5093203;28;20063;-70
2021/10/16 14:03:33;;;;;;;1.90;1.80;;;;;;;;;;5093557;28;20028;-70
2021/10/16 14:05:58;;;;;;;4.13;1.90;;;;;;;;;;5093624;28;20446;-70
2021/10/16 14:08:24;;;;;;;2.50;2.30;;;;;;;;;;5084343;28;20059;-74
2021/10/16 14:10:50;;;;;;;3.83;2.50;;;;;;;;;;5074459;28;20051;-72
2021/10/16 14:13:16;;;;;;;2.33;1.70;;;;;;;;;;5055110;28;20040;-71
2021/10/16 14:15:42;;;;;;;3.22;2.47;;;;;;;;;;5075861;28;20041;-71
2021/10/16 14:18:07;;;;;;;1.38;1.27;;;;;;;;;;5072794;28;20487;-68
2021/10/16 14:20:33;;;;;;;3.03;2.75;;;;;;;;;;5072681;28;20044;-70
2021/10/16 14:22:58;;;;;;;3.42;1.65;;;;;;;;;;5054103;28;20118;-69
2021/10/16 14:25:25;;;;;;;5.70;2.78;;;;;;;;;;5072837;28;20029;-72
2021/10/16 14:27:50;;;;;;;7.50;2.72;;;;;;;;;;5069268;28;20093;-70
2021/10/16 14:30:15;;;;;;;4.88;2.45;;;;;;;;;;5091742;28;20029;-71
2021/10/16 14:32:41;;;;;;;3.88;1.92;;;;;;;;;;5092312;28;20043;-69
2021/10/16 14:35:07;;;;;;;4.53;2.10;;;;;;;;;;5091853;28;20031;-70
2021/10/16 14:37:33;;;;;;;3.85;2.65;;;;;;;;;;5093160;28;20486;-71
2021/10/16 14:39:58;;;;;;;2.78;1.50;;;;;;;;;;5074592;28;20066;-72
2021/10/16 14:42:23;;;;;;;4.95;2.58;;;;;;;;;;5092485;28;20120;-72
2021/10/16 14:44:49;;;;;;;3.38;2.65;;;;;;;;;;5092636;28;20036;-69